sensor_id;sensor_type;location;lat;lon;timestamp;temperature;humidity
52919;DHT22;38793;52.690;6.812;2024-01-27T00:01:48;3.30;99.90
52919;DHT22;38793;52.690;6.812;2024-01-27T00:04:13;3.30;99.90
52919;DHT22;38793;52.690;6.812;2024-01-27T00:06:39;3.30;99.90
52919;DHT22;38793;52.690;6.812;2024-01-27T00:09:05;3.20;99.90
52919;DHT22;38793;52.690;6.812;2024-01-27T00:11:32;3.20;99.90
52919;DHT22;38793;52.690;6.812;2024-01-27T00:13:57;3.20;99.90
52919;DHT22;38793;52.690;6.812;2024-01-27T00:16:24;3.20;99.90
52919;DHT22;38793;52.690;6.812;2024-01-27T00:18:50;3.20;99.90
52919;DHT22;38793;52.690;6.812;2024-01-27T00:21:15;3.20;99.90
52919;DHT22;38793;52.690;6.812;2024-01-27T00:23:41;3.20;99.90
52919;DHT22;38793;52.690;6.812;2024-01-27T00:26:07;3.10;99.90
52919;DHT22;38793;52.690;6.812;2024-01-27T00:28:32;3.10;99.90
52919;DHT22;38793;52.690;6.812;2024-01-27T00:30:58;3.10;99.90
52919;DHT22;38793;52.690;6.812;2024-01-27T00:33:23;3.10;99.90
52919;DHT22;38793;52.690;6.812;2024-01-27T00:35:49;3.20;99.90
52919;DHT22;38793;52.690;6.812;2024-01-27T00:38:14;3.20;99.90
52919;DHT22;38793;52.690;6.812;2024-01-27T00:40:40;3.20;99.90
52919;DHT22;38793;52.690;6.812;2024-01-27T00:43:06;3.20;99.90
52919;DHT22;38793;52.690;6.812;2024-01-27T00:45:32;3.20;99.90
52919;DHT22;38793;52.690;6.812;2024-01-27T00:47:57;3.20;99.90
52919;DHT22;38793;52.690;6.812;2024-01-27T00:50:23;3.20;99.90
52919;DHT22;38793;52.690;6.812;2024-01-27T00:52:49;3.20;99.90
52919;DHT22;38793;52.690;6.812;2024-01-27T00:55:15;3.20;99.90
52919;DHT22;38793;52.690;6.812;2024-01-27T00:57:40;3.20;99.90
52919;DHT22;38793;52.690;6.812;2024-01-27T01:00:07;3.20;99.90
52919;DHT22;38793;52.690;6.812;2024-01-27T01:02:34;3.10;99.90
52919;DHT22;38793;52.690;6.812;2024-01-27T01:05:00;3.10;99.90
52919;DHT22;38793;52.690;6.812;2024-01-27T01:07:26;3.10;99.90
52919;DHT22;38793;52.690;6.812;2024-01-27T01:09:51;3.10;99.90
52919;DHT22;38793;52.690;6.812;2024-01-27T01:12:17;3.10;99.90
52919;DHT22;38793;52.690;6.812;2024-01-27T01:14:43;3.10;99.90
52919;DHT22;38793;52.690;6.812;2024-01-27T01:17:09;3.10;99.90
52919;DHT22;38793;52.690;6.812;2024-01-27T01:19:37;3.10;99.90
52919;DHT22;38793;52.690;6.812;2024-01-27T01:22:03;3.10;99.90
52919;DHT22;38793;52.690;6.812;2024-01-27T01:24:29;3.10;99.90
52919;DHT22;38793;52.690;6.812;2024-01-27T01:26:55;3.10;99.90
52919;DHT22;38793;52.690;6.812;2024-01-27T01:29:21;3.10;99.90
52919;DHT22;38793;52.690;6.812;2024-01-27T01:31:47;3.20;99.90
52919;DHT22;38793;52.690;6.812;2024-01-27T01:34:13;3.20;99.90
52919;DHT22;38793;52.690;6.812;2024-01-27T01:36:39;3.20;99.90
52919;DHT22;38793;52.690;6.812;2024-01-27T01:39:04;3.20;99.90
52919;DHT22;38793;52.690;6.812;2024-01-27T01:41:30;3.10;99.90
52919;DHT22;38793;52.690;6.812;2024-01-27T01:43:56;3.10;99.90
52919;DHT22;38793;52.690;6.812;2024-01-27T01:46:22;3.10;99.90
52919;DHT22;38793;52.690;6.812;2024-01-27T01:48:49;3.10;99.90
52919;DHT22;38793;52.690;6.812;2024-01-27T01:51:16;3.20;99.90
52919;DHT22;38793;52.690;6.812;2024-01-27T01:53:42;3.10;99.90
52919;DHT22;38793;52.690;6.812;2024-01-27T01:56:09;3.10;99.90
52919;DHT22;38793;52.690;6.812;2024-01-27T01:58:34;3.10;99.90
52919;DHT22;38793;52.690;6.812;2024-01-27T02:01:00;3.10;99.90
52919;DHT22;38793;52.690;6.812;2024-01-27T02:03:27;3.10;99.90
52919;DHT22;38793;52.690;6.812;2024-01-27T02:05:53;3.10;99.90
52919;DHT22;38793;52.690;6.812;2024-01-27T02:08:18;3.10;99.90
52919;DHT22;38793;52.690;6.812;2024-01-27T02:10:44;3.10;99.90
52919;DHT22;38793;52.690;6.812;2024-01-27T02:13:21;3.10;99.90
52919;DHT22;38793;52.690;6.812;2024-01-27T02:15:48;3.00;99.90
52919;DHT22;38793;52.690;6.812;2024-01-27T02:18:14;3.10;99.90
52919;DHT22;38793;52.690;6.812;2024-01-27T02:20:40;3.10;99.90
52919;DHT22;38793;52.690;6.812;2024-01-27T02:23:06;3.10;99.90
52919;DHT22;38793;52.690;6.812;2024-01-27T02:25:32;3.00;99.90
52919;DHT22;38793;52.690;6.812;2024-01-27T02:27:58;3.00;99.90
52919;DHT22;38793;52.690;6.812;2024-01-27T02:30:24;3.00;99.90
52919;DHT22;38793;52.690;6.812;2024-01-27T02:32:51;3.10;99.90
52919;DHT22;38793;52.690;6.812;2024-01-27T02:35:17;3.10;99.90
52919;DHT22;38793;52.690;6.812;2024-01-27T02:37:42;3.10;99.90
52919;DHT22;38793;52.690;6.812;2024-01-27T02:40:09;3.00;99.90
52919;DHT22;38793;52.690;6.812;2024-01-27T02:42:37;3.10;99.90
52919;DHT22;38793;52.690;6.812;2024-01-27T02:45:04;3.00;99.90
52919;DHT22;38793;52.690;6.812;2024-01-27T02:47:30;3.00;99.90
52919;DHT22;38793;52.690;6.812;2024-01-27T02:49:55;3.00;99.90
52919;DHT22;38793;52.690;6.812;2024-01-27T02:52:21;3.10;99.90
52919;DHT22;38793;52.690;6.812;2024-01-27T02:54:47;3.00;99.90
52919;DHT22;38793;52.690;6.812;2024-01-27T02:57:12;3.10;99.90
52919;DHT22;38793;52.690;6.812;2024-01-27T02:59:38;3.10;99.90
52919;DHT22;38793;52.690;6.812;2024-01-27T03:02:06;3.10;99.90
52919;DHT22;38793;52.690;6.812;2024-01-27T03:04:32;3.10;99.90
52919;DHT22;38793;52.690;6.812;2024-01-27T03:06:58;3.10;99.90
52919;DHT22;38793;52.690;6.812;2024-01-27T03:09:23;3.10;99.90
52919;DHT22;38793;52.690;6.812;2024-01-27T03:11:49;3.00;99.90
52919;DHT22;38793;52.690;6.812;2024-01-27T03:14:15;3.10;99.90
52919;DHT22;38793;52.690;6.812;2024-01-27T03:16:40;3.00;99.90
52919;DHT22;38793;52.690;6.812;2024-01-27T03:19:06;3.10;99.90
52919;DHT22;38793;52.690;6.812;2024-01-27T03:21:32;3.00;99.90
52919;DHT22;38793;52.690;6.812;2024-01-27T03:23:58;3.00;99.90
52919;DHT22;38793;52.690;6.812;2024-01-27T03:26:23;3.00;99.90
52919;DHT22;38793;52.690;6.812;2024-01-27T03:28:49;3.00;99.90
52919;DHT22;38793;52.690;6.812;2024-01-27T03:31:15;3.00;99.90
52919;DHT22;38793;52.690;6.812;2024-01-27T03:33:40;3.00;99.90
52919;DHT22;38793;52.690;6.812;2024-01-27T03:36:10;3.00;99.90
52919;DHT22;38793;52.690;6.812;2024-01-27T03:38:35;3.00;99.90
52919;DHT22;38793;52.690;6.812;2024-01-27T03:41:02;3.00;99.90
52919;DHT22;38793;52.690;6.812;2024-01-27T03:43:27;3.00;99.90
52919;DHT22;38793;52.690;6.812;2024-01-27T03:45:53;3.00;99.90
52919;DHT22;38793;52.690;6.812;2024-01-27T03:48:18;3.00;99.90
52919;DHT22;38793;52.690;6.812;2024-01-27T03:50:44;3.00;99.90
52919;DHT22;38793;52.690;6.812;2024-01-27T03:53:10;3.00;99.90
52919;DHT22;38793;52.690;6.812;2024-01-27T03:55:36;3.00;99.90
52919;DHT22;38793;52.690;6.812;2024-01-27T03:58:01;3.00;99.90
52919;DHT22;38793;52.690;6.812;2024-01-27T04:00:27;3.00;99.90
52919;DHT22;38793;52.690;6.812;2024-01-27T04:02:55;3.00;99.90
52919;DHT22;38793;52.690;6.812;2024-01-27T04:05:20;3.00;99.90
52919;DHT22;38793;52.690;6.812;2024-01-27T04:07:46;3.10;99.90
52919;DHT22;38793;52.690;6.812;2024-01-27T04:10:11;3.00;99.90
52919;DHT22;38793;52.690;6.812;2024-01-27T04:12:37;3.00;99.90
52919;DHT22;38793;52.690;6.812;2024-01-27T04:15:03;3.00;99.90
52919;DHT22;38793;52.690;6.812;2024-01-27T04:17:29;3.00;99.90
52919;DHT22;38793;52.690;6.812;2024-01-27T04:19:54;3.00;99.90
52919;DHT22;38793;52.690;6.812;2024-01-27T04:22:20;3.00;99.90
52919;DHT22;38793;52.690;6.812;2024-01-27T04:24:45;3.00;99.90
52919;DHT22;38793;52.690;6.812;2024-01-27T04:27:11;3.00;99.90
52919;DHT22;38793;52.690;6.812;2024-01-27T04:29:37;2.90;99.90
52919;DHT22;38793;52.690;6.812;2024-01-27T04:32:02;2.90;99.90
52919;DHT22;38793;52.690;6.812;2024-01-27T04:34:28;3.00;99.90
52919;DHT22;38793;52.690;6.812;2024-01-27T04:36:54;2.90;99.90
52919;DHT22;38793;52.690;6.812;2024-01-27T04:39:19;3.00;99.90
52919;DHT22;38793;52.690;6.812;2024-01-27T04:41:45;3.00;99.90
52919;DHT22;38793;52.690;6.812;2024-01-27T04:44:11;2.90;99.90
52919;DHT22;38793;52.690;6.812;2024-01-27T04:46:36;3.00;99.90
52919;DHT22;38793;52.690;6.812;2024-01-27T04:49:02;2.90;99.90
52919;DHT22;38793;52.690;6.812;2024-01-27T04:51:27;2.90;99.90
52919;DHT22;38793;52.690;6.812;2024-01-27T04:53:53;3.00;99.90
52919;DHT22;38793;52.690;6.812;2024-01-27T04:56:19;2.90;99.90
52919;DHT22;38793;52.690;6.812;2024-01-27T04:58:44;2.90;99.90
52919;DHT22;38793;52.690;6.812;2024-01-27T05:01:10;2.80;99.90
52919;DHT22;38793;52.690;6.812;2024-01-27T05:03:35;2.80;99.90
52919;DHT22;38793;52.690;6.812;2024-01-27T05:06:02;2.70;99.90
52919;DHT22;38793;52.690;6.812;2024-01-27T05:08:28;2.60;99.90
52919;DHT22;38793;52.690;6.812;2024-01-27T05:10:53;2.60;99.90
52919;DHT22;38793;52.690;6.812;2024-01-27T05:13:19;2.50;99.90
52919;DHT22;38793;52.690;6.812;2024-01-27T05:15:45;2.50;99.90
52919;DHT22;38793;52.690;6.812;2024-01-27T05:18:10;2.40;99.90
52919;DHT22;38793;52.690;6.812;2024-01-27T05:20:36;2.30;99.90
52919;DHT22;38793;52.690;6.812;2024-01-27T05:23:01;2.30;99.90
52919;DHT22;38793;52.690;6.812;2024-01-27T05:25:27;2.30;99.90
52919;DHT22;38793;52.690;6.812;2024-01-27T05:27:53;2.20;99.90
52919;DHT22;38793;52.690;6.812;2024-01-27T05:30:18;2.20;99.90
52919;DHT22;38793;52.690;6.812;2024-01-27T05:32:44;2.20;99.90
52919;DHT22;38793;52.690;6.812;2024-01-27T05:35:09;2.20;99.90
52919;DHT22;38793;52.690;6.812;2024-01-27T05:37:36;2.10;99.90
52919;DHT22;38793;52.690;6.812;2024-01-27T05:40:01;2.10;99.90
52919;DHT22;38793;52.690;6.812;2024-01-27T05:42:28;2.10;99.90
52919;DHT22;38793;52.690;6.812;2024-01-27T05:44:54;2.10;99.90
52919;DHT22;38793;52.690;6.812;2024-01-27T05:47:19;2.10;99.90
52919;DHT22;38793;52.690;6.812;2024-01-27T05:49:45;2.10;99.90
52919;DHT22;38793;52.690;6.812;2024-01-27T05:52:10;2.10;99.90
52919;DHT22;38793;52.690;6.812;2024-01-27T05:54:36;2.10;99.90
52919;DHT22;38793;52.690;6.812;2024-01-27T05:57:02;2.10;99.90
52919;DHT22;38793;52.690;6.812;2024-01-27T05:59:28;2.10;99.90
52919;DHT22;38793;52.690;6.812;2024-01-27T06:01:54;2.00;99.90
52919;DHT22;38793;52.690;6.812;2024-01-27T06:04:19;2.00;99.90
52919;DHT22;38793;52.690;6.812;2024-01-27T06:06:45;2.00;99.90
52919;DHT22;38793;52.690;6.812;2024-01-27T06:09:11;1.90;99.90
52919;DHT22;38793;52.690;6.812;2024-01-27T06:11:37;1.90;99.90
52919;DHT22;38793;52.690;6.812;2024-01-27T06:14:04;1.90;99.90
52919;DHT22;38793;52.690;6.812;2024-01-27T06:16:30;1.90;99.90
52919;DHT22;38793;52.690;6.812;2024-01-27T06:18:55;1.90;99.90
52919;DHT22;38793;52.690;6.812;2024-01-27T06:21:21;1.90;99.90
52919;DHT22;38793;52.690;6.812;2024-01-27T06:23:47;1.90;99.90
52919;DHT22;38793;52.690;6.812;2024-01-27T06:26:13;2.00;99.90
52919;DHT22;38793;52.690;6.812;2024-01-27T06:28:40;2.00;99.90
52919;DHT22;38793;52.690;6.812;2024-01-27T06:31:06;2.10;99.90
52919;DHT22;38793;52.690;6.812;2024-01-27T06:33:34;2.20;99.90
52919;DHT22;38793;52.690;6.812;2024-01-27T06:36:00;2.20;99.90
52919;DHT22;38793;52.690;6.812;2024-01-27T06:38:29;2.30;99.90
52919;DHT22;38793;52.690;6.812;2024-01-27T06:40:57;2.40;99.90
52919;DHT22;38793;52.690;6.812;2024-01-27T06:43:22;2.40;99.90
52919;DHT22;38793;52.690;6.812;2024-01-27T06:45:49;2.40;99.90
52919;DHT22;38793;52.690;6.812;2024-01-27T06:48:14;2.40;99.90
52919;DHT22;38793;52.690;6.812;2024-01-27T06:50:40;2.40;99.90
52919;DHT22;38793;52.690;6.812;2024-01-27T06:53:06;2.40;99.90
52919;DHT22;38793;52.690;6.812;2024-01-27T06:55:31;2.30;99.90
52919;DHT22;38793;52.690;6.812;2024-01-27T06:57:57;2.30;99.90
52919;DHT22;38793;52.690;6.812;2024-01-27T07:00:22;2.20;99.90
52919;DHT22;38793;52.690;6.812;2024-01-27T07:02:48;2.20;99.90
52919;DHT22;38793;52.690;6.812;2024-01-27T07:05:14;2.10;99.90
52919;DHT22;38793;52.690;6.812;2024-01-27T07:07:40;2.10;99.90
52919;DHT22;38793;52.690;6.812;2024-01-27T07:10:07;2.00;99.90
52919;DHT22;38793;52.690;6.812;2024-01-27T07:12:35;2.00;99.90
52919;DHT22;38793;52.690;6.812;2024-01-27T07:15:02;2.00;99.90
52919;DHT22;38793;52.690;6.812;2024-01-27T07:17:27;1.90;99.90
52919;DHT22;38793;52.690;6.812;2024-01-27T07:19:53;2.00;99.90
52919;DHT22;38793;52.690;6.812;2024-01-27T07:22:19;1.90;99.90
52919;DHT22;38793;52.690;6.812;2024-01-27T07:24:44;2.00;99.90
52919;DHT22;38793;52.690;6.812;2024-01-27T07:27:12;2.00;99.90
52919;DHT22;38793;52.690;6.812;2024-01-27T07:29:38;2.00;99.90
52919;DHT22;38793;52.690;6.812;2024-01-27T07:32:04;2.00;99.90
52919;DHT22;38793;52.690;6.812;2024-01-27T07:34:30;2.00;99.90
52919;DHT22;38793;52.690;6.812;2024-01-27T07:36:56;2.00;99.90
52919;DHT22;38793;52.690;6.812;2024-01-27T07:39:21;2.00;99.90
52919;DHT22;38793;52.690;6.812;2024-01-27T07:41:47;2.10;99.90
52919;DHT22;38793;52.690;6.812;2024-01-27T07:44:14;2.10;99.90
52919;DHT22;38793;52.690;6.812;2024-01-27T07:46:41;2.20;99.90
52919;DHT22;38793;52.690;6.812;2024-01-27T07:49:07;2.40;99.90
52919;DHT22;38793;52.690;6.812;2024-01-27T07:51:33;2.60;99.90
52919;DHT22;38793;52.690;6.812;2024-01-27T07:54:00;2.80;99.90
52919;DHT22;38793;52.690;6.812;2024-01-27T07:56:26;3.00;99.90
52919;DHT22;38793;52.690;6.812;2024-01-27T07:58:52;3.20;99.90
52919;DHT22;38793;52.690;6.812;2024-01-27T08:01:18;3.50;99.90
52919;DHT22;38793;52.690;6.812;2024-01-27T08:03:44;3.80;99.90
52919;DHT22;38793;52.690;6.812;2024-01-27T08:06:17;4.10;99.90
52919;DHT22;38793;52.690;6.812;2024-01-27T08:08:47;4.40;99.90
52919;DHT22;38793;52.690;6.812;2024-01-27T08:11:17;4.50;99.90
52919;DHT22;38793;52.690;6.812;2024-01-27T08:13:43;4.40;99.90
52919;DHT22;38793;52.690;6.812;2024-01-27T08:16:09;4.30;99.90
52919;DHT22;38793;52.690;6.812;2024-01-27T08:18:40;4.30;99.90
52919;DHT22;38793;52.690;6.812;2024-01-27T08:21:08;4.50;99.90
52919;DHT22;38793;52.690;6.812;2024-01-27T08:23:34;5.00;99.90
52919;DHT22;38793;52.690;6.812;2024-01-27T08:26:00;5.50;99.90
52919;DHT22;38793;52.690;6.812;2024-01-27T08:28:26;6.20;99.90
52919;DHT22;38793;52.690;6.812;2024-01-27T08:30:51;6.80;99.90
52919;DHT22;38793;52.690;6.812;2024-01-27T08:33:17;7.30;99.90
52919;DHT22;38793;52.690;6.812;2024-01-27T08:35:43;7.60;99.90
52919;DHT22;38793;52.690;6.812;2024-01-27T08:38:09;8.20;99.90
52919;DHT22;38793;52.690;6.812;2024-01-27T08:40:35;8.90;99.90
52919;DHT22;38793;52.690;6.812;2024-01-27T08:43:01;9.40;99.90
52919;DHT22;38793;52.690;6.812;2024-01-27T08:45:27;9.80;99.90
52919;DHT22;38793;52.690;6.812;2024-01-27T08:47:53;10.00;99.90
52919;DHT22;38793;52.690;6.812;2024-01-27T08:50:19;10.00;99.90
52919;DHT22;38793;52.690;6.812;2024-01-27T08:52:44;10.10;99.90
52919;DHT22;38793;52.690;6.812;2024-01-27T08:55:11;10.30;99.90
52919;DHT22;38793;52.690;6.812;2024-01-27T08:57:37;10.50;99.90
52919;DHT22;38793;52.690;6.812;2024-01-27T09:00:03;10.80;99.90
52919;DHT22;38793;52.690;6.812;2024-01-27T09:02:29;11.00;99.90
52919;DHT22;38793;52.690;6.812;2024-01-27T09:04:55;11.20;99.90
52919;DHT22;38793;52.690;6.812;2024-01-27T09:07:21;11.10;99.90
52919;DHT22;38793;52.690;6.812;2024-01-27T09:09:46;11.40;99.90
52919;DHT22;38793;52.690;6.812;2024-01-27T09:12:12;11.50;99.90
52919;DHT22;38793;52.690;6.812;2024-01-27T09:14:38;11.60;99.90
52919;DHT22;38793;52.690;6.812;2024-01-27T09:17:03;11.50;99.90
52919;DHT22;38793;52.690;6.812;2024-01-27T09:19:58;11.40;99.90
52919;DHT22;38793;52.690;6.812;2024-01-27T09:22:23;11.70;99.90
52919;DHT22;38793;52.690;6.812;2024-01-27T09:24:50;12.10;99.90
52919;DHT22;38793;52.690;6.812;2024-01-27T09:27:16;12.30;99.90
52919;DHT22;38793;52.690;6.812;2024-01-27T09:29:42;12.20;99.90
52919;DHT22;38793;52.690;6.812;2024-01-27T09:32:08;12.20;99.90
52919;DHT22;38793;52.690;6.812;2024-01-27T09:34:34;12.20;99.90
52919;DHT22;38793;52.690;6.812;2024-01-27T09:36:59;12.30;99.90
52919;DHT22;38793;52.690;6.812;2024-01-27T09:39:25;12.00;99.90
52919;DHT22;38793;52.690;6.812;2024-01-27T09:41:51;12.00;99.90
52919;DHT22;38793;52.690;6.812;2024-01-27T09:44:18;12.20;99.90
52919;DHT22;38793;52.690;6.812;2024-01-27T09:46:45;12.40;99.90
52919;DHT22;38793;52.690;6.812;2024-01-27T09:49:11;12.40;99.90
52919;DHT22;38793;52.690;6.812;2024-01-27T09:51:40;12.40;99.40
52919;DHT22;38793;52.690;6.812;2024-01-27T09:54:06;11.90;99.90
52919;DHT22;38793;52.690;6.812;2024-01-27T09:56:33;11.50;99.90
52919;DHT22;38793;52.690;6.812;2024-01-27T09:58:59;11.10;99.90
52919;DHT22;38793;52.690;6.812;2024-01-27T10:01:25;10.60;99.90
52919;DHT22;38793;52.690;6.812;2024-01-27T10:03:54;10.40;99.90
52919;DHT22;38793;52.690;6.812;2024-01-27T10:06:20;10.10;99.90
52919;DHT22;38793;52.690;6.812;2024-01-27T10:08:55;9.90;99.90
52919;DHT22;38793;52.690;6.812;2024-01-27T10:11:22;9.50;99.90
52919;DHT22;38793;52.690;6.812;2024-01-27T10:13:55;9.50;99.90
52919;DHT22;38793;52.690;6.812;2024-01-27T10:16:21;9.40;99.90
52919;DHT22;38793;52.690;6.812;2024-01-27T10:18:47;9.30;99.90
52919;DHT22;38793;52.690;6.812;2024-01-27T10:21:17;9.40;99.90
52919;DHT22;38793;52.690;6.812;2024-01-27T10:23:43;9.40;99.90
52919;DHT22;38793;52.690;6.812;2024-01-27T10:26:10;9.40;99.90
52919;DHT22;38793;52.690;6.812;2024-01-27T10:28:35;9.50;99.90
52919;DHT22;38793;52.690;6.812;2024-01-27T10:31:13;9.50;99.90
52919;DHT22;38793;52.690;6.812;2024-01-27T10:33:39;9.50;99.90
52919;DHT22;38793;52.690;6.812;2024-01-27T10:36:05;9.40;99.90
52919;DHT22;38793;52.690;6.812;2024-01-27T10:38:38;9.40;99.90
52919;DHT22;38793;52.690;6.812;2024-01-27T10:41:08;9.20;99.90
52919;DHT22;38793;52.690;6.812;2024-01-27T10:43:36;9.20;99.90
52919;DHT22;38793;52.690;6.812;2024-01-27T10:46:06;9.30;99.90
52919;DHT22;38793;52.690;6.812;2024-01-27T10:48:35;9.20;99.90
52919;DHT22;38793;52.690;6.812;2024-01-27T10:51:08;9.20;99.90
52919;DHT22;38793;52.690;6.812;2024-01-27T10:53:35;9.10;99.90
52919;DHT22;38793;52.690;6.812;2024-01-27T10:56:03;9.20;99.90
52919;DHT22;38793;52.690;6.812;2024-01-27T10:58:35;9.30;99.90
52919;DHT22;38793;52.690;6.812;2024-01-27T11:01:09;9.40;99.90
52919;DHT22;38793;52.690;6.812;2024-01-27T11:03:38;9.40;99.90
52919;DHT22;38793;52.690;6.812;2024-01-27T11:06:05;9.60;99.90
52919;DHT22;38793;52.690;6.812;2024-01-27T11:08:31;9.80;99.90
52919;DHT22;38793;52.690;6.812;2024-01-27T11:10:58;10.00;99.90
52919;DHT22;38793;52.690;6.812;2024-01-27T11:13:25;10.30;99.90
52919;DHT22;38793;52.690;6.812;2024-01-27T11:15:55;10.40;99.90
52919;DHT22;38793;52.690;6.812;2024-01-27T11:18:21;10.50;99.90
52919;DHT22;38793;52.690;6.812;2024-01-27T11:20:47;10.50;99.90
52919;DHT22;38793;52.690;6.812;2024-01-27T11:23:13;10.50;99.90
52919;DHT22;38793;52.690;6.812;2024-01-27T11:25:39;10.50;99.90
52919;DHT22;38793;52.690;6.812;2024-01-27T11:28:16;10.50;99.90
52919;DHT22;38793;52.690;6.812;2024-01-27T11:30:46;10.70;99.90
52919;DHT22;38793;52.690;6.812;2024-01-27T11:33:13;10.70;99.90
52919;DHT22;38793;52.690;6.812;2024-01-27T11:35:38;10.80;99.90
52919;DHT22;38793;52.690;6.812;2024-01-27T11:38:04;10.90;99.90
52919;DHT22;38793;52.690;6.812;2024-01-27T11:40:30;11.00;99.90
52919;DHT22;38793;52.690;6.812;2024-01-27T11:43:01;11.10;99.90
52919;DHT22;38793;52.690;6.812;2024-01-27T11:45:27;11.20;99.90
52919;DHT22;38793;52.690;6.812;2024-01-27T11:47:57;11.20;99.90
52919;DHT22;38793;52.690;6.812;2024-01-27T11:50:23;11.50;99.90
52919;DHT22;38793;52.690;6.812;2024-01-27T11:52:49;11.50;99.90
52919;DHT22;38793;52.690;6.812;2024-01-27T11:55:15;11.50;99.90
52919;DHT22;38793;52.690;6.812;2024-01-27T11:57:41;11.60;99.90
52919;DHT22;38793;52.690;6.812;2024-01-27T12:00:08;11.60;99.90
52919;DHT22;38793;52.690;6.812;2024-01-27T12:02:37;11.80;99.90
52919;DHT22;38793;52.690;6.812;2024-01-27T12:05:05;11.70;99.90
52919;DHT22;38793;52.690;6.812;2024-01-27T12:07:31;11.60;99.90
52919;DHT22;38793;52.690;6.812;2024-01-27T12:09:57;11.60;99.90
52919;DHT22;38793;52.690;6.812;2024-01-27T12:12:22;11.80;99.90
52919;DHT22;38793;52.690;6.812;2024-01-27T12:14:49;11.70;99.90
52919;DHT22;38793;52.690;6.812;2024-01-27T12:17:16;11.60;99.90
52919;DHT22;38793;52.690;6.812;2024-01-27T12:19:51;11.80;99.90
52919;DHT22;38793;52.690;6.812;2024-01-27T12:22:26;11.90;99.90
52919;DHT22;38793;52.690;6.812;2024-01-27T12:24:53;12.10;99.90
52919;DHT22;38793;52.690;6.812;2024-01-27T12:27:19;12.30;99.90
52919;DHT22;38793;52.690;6.812;2024-01-27T12:29:47;12.30;99.90
52919;DHT22;38793;52.690;6.812;2024-01-27T12:32:14;12.40;99.90
52919;DHT22;38793;52.690;6.812;2024-01-27T12:34:41;12.30;99.90
52919;DHT22;38793;52.690;6.812;2024-01-27T12:37:11;12.20;99.90
52919;DHT22;38793;52.690;6.812;2024-01-27T12:39:37;12.30;99.90
52919;DHT22;38793;52.690;6.812;2024-01-27T12:42:03;12.30;99.90
52919;DHT22;38793;52.690;6.812;2024-01-27T12:44:29;12.10;99.90
52919;DHT22;38793;52.690;6.812;2024-01-27T12:46:55;12.30;99.90
52919;DHT22;38793;52.690;6.812;2024-01-27T12:49:22;12.20;99.90
52919;DHT22;38793;52.690;6.812;2024-01-27T12:51:48;12.30;99.90
52919;DHT22;38793;52.690;6.812;2024-01-27T12:54:14;12.30;99.90
52919;DHT22;38793;52.690;6.812;2024-01-27T12:56:40;12.50;99.90
52919;DHT22;38793;52.690;6.812;2024-01-27T12:59:06;12.60;99.90
52919;DHT22;38793;52.690;6.812;2024-01-27T13:01:33;12.90;99.90
52919;DHT22;38793;52.690;6.812;2024-01-27T13:03:59;13.20;99.90
52919;DHT22;38793;52.690;6.812;2024-01-27T13:06:24;13.10;99.40
52919;DHT22;38793;52.690;6.812;2024-01-27T13:08:50;13.10;99.90
52919;DHT22;38793;52.690;6.812;2024-01-27T13:11:16;13.30;99.90
52919;DHT22;38793;52.690;6.812;2024-01-27T13:13:42;13.60;99.40
52919;DHT22;38793;52.690;6.812;2024-01-27T13:16:07;13.80;99.30
52919;DHT22;38793;52.690;6.812;2024-01-27T13:18:33;14.00;98.60
52919;DHT22;38793;52.690;6.812;2024-01-27T13:20:59;14.20;97.50
52919;DHT22;38793;52.690;6.812;2024-01-27T13:23:24;14.60;98.50
52919;DHT22;38793;52.690;6.812;2024-01-27T13:25:50;14.90;95.90
52919;DHT22;38793;52.690;6.812;2024-01-27T13:28:17;15.30;96.60
52919;DHT22;38793;52.690;6.812;2024-01-27T13:30:42;15.90;96.70
52919;DHT22;38793;52.690;6.812;2024-01-27T13:33:08;16.70;96.00
52919;DHT22;38793;52.690;6.812;2024-01-27T13:35:34;16.90;92.60
52919;DHT22;38793;52.690;6.812;2024-01-27T13:37:59;17.20;91.10
52919;DHT22;38793;52.690;6.812;2024-01-27T13:40:25;17.00;90.50
52919;DHT22;38793;52.690;6.812;2024-01-27T13:42:51;16.30;90.20
52919;DHT22;38793;52.690;6.812;2024-01-27T13:45:18;15.60;90.90
52919;DHT22;38793;52.690;6.812;2024-01-27T13:47:44;15.20;91.50
52919;DHT22;38793;52.690;6.812;2024-01-27T13:50:11;14.80;90.90
52919;DHT22;38793;52.690;6.812;2024-01-27T13:52:37;14.20;90.90
52919;DHT22;38793;52.690;6.812;2024-01-27T13:55:02;13.60;92.00
52919;DHT22;38793;52.690;6.812;2024-01-27T13:57:28;13.30;92.70
52919;DHT22;38793;52.690;6.812;2024-01-27T13:59:54;13.00;93.50
52919;DHT22;38793;52.690;6.812;2024-01-27T14:02:19;13.00;93.80
52919;DHT22;38793;52.690;6.812;2024-01-27T14:04:45;12.70;93.70
52919;DHT22;38793;52.690;6.812;2024-01-27T14:07:10;12.50;93.30
52919;DHT22;38793;52.690;6.812;2024-01-27T14:09:36;12.40;94.00
52919;DHT22;38793;52.690;6.812;2024-01-27T14:12:02;12.10;94.00
52919;DHT22;38793;52.690;6.812;2024-01-27T14:14:28;11.90;94.60
52919;DHT22;38793;52.690;6.812;2024-01-27T14:16:54;11.70;94.70
52919;DHT22;38793;52.690;6.812;2024-01-27T14:19:19;11.50;94.70
52919;DHT22;38793;52.690;6.812;2024-01-27T14:21:45;11.40;94.70
52919;DHT22;38793;52.690;6.812;2024-01-27T14:24:11;11.30;96.00
52919;DHT22;38793;52.690;6.812;2024-01-27T14:26:37;11.20;95.70
52919;DHT22;38793;52.690;6.812;2024-01-27T14:29:03;11.10;95.70
52919;DHT22;38793;52.690;6.812;2024-01-27T14:31:30;10.90;95.60
52919;DHT22;38793;52.690;6.812;2024-01-27T14:33:56;10.80;96.70
52919;DHT22;38793;52.690;6.812;2024-01-27T14:36:22;10.70;97.00
52919;DHT22;38793;52.690;6.812;2024-01-27T14:38:49;10.70;97.10
52919;DHT22;38793;52.690;6.812;2024-01-27T14:41:15;10.60;97.20
52919;DHT22;38793;52.690;6.812;2024-01-27T14:43:40;10.50;97.80
52919;DHT22;38793;52.690;6.812;2024-01-27T14:46:06;10.30;98.70
52919;DHT22;38793;52.690;6.812;2024-01-27T14:48:32;10.30;99.60
52919;DHT22;38793;52.690;6.812;2024-01-27T14:50:58;10.20;99.90
52919;DHT22;38793;52.690;6.812;2024-01-27T14:53:30;10.20;99.90
52919;DHT22;38793;52.690;6.812;2024-01-27T14:55:56;10.10;99.90
52919;DHT22;38793;52.690;6.812;2024-01-27T14:58:22;10.00;99.90
52919;DHT22;38793;52.690;6.812;2024-01-27T15:00:48;9.90;99.90
52919;DHT22;38793;52.690;6.812;2024-01-27T15:03:24;9.70;99.90
52919;DHT22;38793;52.690;6.812;2024-01-27T15:05:52;9.60;99.90
52919;DHT22;38793;52.690;6.812;2024-01-27T15:08:19;9.50;99.90
52919;DHT22;38793;52.690;6.812;2024-01-27T15:10:45;9.40;99.90
52919;DHT22;38793;52.690;6.812;2024-01-27T15:13:12;9.30;99.90
52919;DHT22;38793;52.690;6.812;2024-01-27T15:15:39;9.20;99.90
52919;DHT22;38793;52.690;6.812;2024-01-27T15:18:05;9.20;99.90
52919;DHT22;38793;52.690;6.812;2024-01-27T15:20:32;9.20;99.90
52919;DHT22;38793;52.690;6.812;2024-01-27T15:22:57;9.10;99.90
52919;DHT22;38793;52.690;6.812;2024-01-27T15:25:23;9.00;99.90
52919;DHT22;38793;52.690;6.812;2024-01-27T15:27:50;8.70;99.90
52919;DHT22;38793;52.690;6.812;2024-01-27T15:30:19;8.70;99.90
52919;DHT22;38793;52.690;6.812;2024-01-27T15:32:48;8.50;99.90
52919;DHT22;38793;52.690;6.812;2024-01-27T15:35:14;8.40;99.90